sensor_id;sensor_type;location;lat;lon;timestamp;P1;durP1;ratioP1;P2;durP2;ratioP2
68074;SDS011;54864;52.002;5.468;2023-08-07T00:00:36;8.90;;;2.45;;
68074;SDS011;54864;52.002;5.468;2023-08-07T00:01:40;7.50;;;2.42;;
68074;SDS011;54864;52.002;5.468;2023-08-07T00:02:41;9.70;;;2.53;;
68074;SDS011;54864;52.002;5.468;2023-08-07T00:03:42;10.87;;;3.10;;
68074;SDS011;54864;52.002;5.468;2023-08-07T00:04:44;8.55;;;3.10;;
68074;SDS011;54864;52.002;5.468;2023-08-07T00:05:51;9.45;;;2.72;;
68074;SDS011;54864;52.002;5.468;2023-08-07T00:06:53;9.23;;;2.80;;
68074;SDS011;54864;52.002;5.468;2023-08-07T00:07:53;9.70;;;2.83;;
68074;SDS011;54864;52.002;5.468;2023-08-07T00:08:55;8.20;;;2.53;;
68074;SDS011;54864;52.002;5.468;2023-08-07T00:09:58;9.95;;;3.17;;
68074;SDS011;54864;52.002;5.468;2023-08-07T00:11:06;7.95;;;3.08;;
68074;SDS011;54864;52.002;5.468;2023-08-07T00:12:07;9.50;;;3.00;;
68074;SDS011;54864;52.002;5.468;2023-08-07T00:13:08;7.97;;;2.70;;
68074;SDS011;54864;52.002;5.468;2023-08-07T00:14:09;9.90;;;3.30;;
68074;SDS011;54864;52.002;5.468;2023-08-07T00:15:11;10.20;;;3.45;;
68074;SDS011;54864;52.002;5.468;2023-08-07T00:16:15;7.93;;;3.03;;
68074;SDS011;54864;52.002;5.468;2023-08-07T00:17:17;14.10;;;3.30;;
68074;SDS011;54864;52.002;5.468;2023-08-07T00:18:18;10.00;;;3.03;;
68074;SDS011;54864;52.002;5.468;2023-08-07T00:19:22;9.57;;;3.17;;
68074;SDS011;54864;52.002;5.468;2023-08-07T00:20:23;11.30;;;3.72;;
68074;SDS011;54864;52.002;5.468;2023-08-07T00:21:25;11.02;;;3.25;;
68074;SDS011;54864;52.002;5.468;2023-08-07T00:22:26;11.82;;;3.28;;
68074;SDS011;54864;52.002;5.468;2023-08-07T00:23:28;10.73;;;3.67;;
68074;SDS011;54864;52.002;5.468;2023-08-07T00:24:28;12.98;;;3.47;;
68074;SDS011;54864;52.002;5.468;2023-08-07T00:25:30;14.68;;;4.03;;
68074;SDS011;54864;52.002;5.468;2023-08-07T00:26:32;12.20;;;3.67;;
68074;SDS011;54864;52.002;5.468;2023-08-07T00:27:36;10.48;;;3.40;;
68074;SDS011;54864;52.002;5.468;2023-08-07T00:28:38;12.82;;;3.58;;
68074;SDS011;54864;52.002;5.468;2023-08-07T00:29:42;9.77;;;3.42;;
68074;SDS011;54864;52.002;5.468;2023-08-07T00:30:43;8.95;;;3.38;;
68074;SDS011;54864;52.002;5.468;2023-08-07T00:31:44;11.38;;;4.00;;
68074;SDS011;54864;52.002;5.468;2023-08-07T00:32:46;10.37;;;3.63;;
68074;SDS011;54864;52.002;5.468;2023-08-07T00:33:47;12.43;;;3.17;;
68074;SDS011;54864;52.002;5.468;2023-08-07T00:34:51;14.80;;;3.50;;
68074;SDS011;54864;52.002;5.468;2023-08-07T00:35:58;12.67;;;3.83;;
68074;SDS011;54864;52.002;5.468;2023-08-07T00:37:03;11.65;;;3.83;;
68074;SDS011;54864;52.002;5.468;2023-08-07T00:38:04;9.52;;;3.40;;
68074;SDS011;54864;52.002;5.468;2023-08-07T00:39:06;11.10;;;3.67;;
68074;SDS011;54864;52.002;5.468;2023-08-07T00:40:08;15.20;;;4.10;;
68074;SDS011;54864;52.002;5.468;2023-08-07T00:41:10;11.60;;;3.58;;
68074;SDS011;54864;52.002;5.468;2023-08-07T00:42:12;14.73;;;4.17;;
68074;SDS011;54864;52.002;5.468;2023-08-07T00:43:14;15.02;;;4.38;;
68074;SDS011;54864;52.002;5.468;2023-08-07T00:44:15;13.93;;;4.15;;
68074;SDS011;54864;52.002;5.468;2023-08-07T00:45:16;9.65;;;3.83;;
68074;SDS011;54864;52.002;5.468;2023-08-07T00:46:20;12.18;;;3.92;;
68074;SDS011;54864;52.002;5.468;2023-08-07T00:47:22;14.65;;;4.47;;
68074;SDS011;54864;52.002;5.468;2023-08-07T00:48:24;11.60;;;4.15;;
68074;SDS011;54864;52.002;5.468;2023-08-07T00:49:25;12.57;;;4.07;;
68074;SDS011;54864;52.002;5.468;2023-08-07T00:50:27;11.50;;;3.58;;
68074;SDS011;54864;52.002;5.468;2023-08-07T00:51:27;13.32;;;3.78;;
68074;SDS011;54864;52.002;5.468;2023-08-07T00:52:45;15.90;;;4.25;;
68074;SDS011;54864;52.002;5.468;2023-08-07T00:53:46;17.10;;;4.28;;
68074;SDS011;54864;52.002;5.468;2023-08-07T00:54:52;15.63;;;4.72;;
68074;SDS011;54864;52.002;5.468;2023-08-07T00:55:53;12.73;;;4.00;;
68074;SDS011;54864;52.002;5.468;2023-08-07T00:56:54;14.07;;;3.97;;
68074;SDS011;54864;52.002;5.468;2023-08-07T00:57:58;15.07;;;4.60;;
68074;SDS011;54864;52.002;5.468;2023-08-07T00:58:59;13.02;;;4.43;;
68074;SDS011;54864;52.002;5.468;2023-08-07T01:00:02;11.63;;;4.18;;
68074;SDS011;54864;52.002;5.468;2023-08-07T01:01:10;12.77;;;4.43;;
68074;SDS011;54864;52.002;5.468;2023-08-07T01:02:12;14.40;;;4.38;;
68074;SDS011;54864;52.002;5.468;2023-08-07T01:03:16;16.25;;;4.53;;
68074;SDS011;54864;52.002;5.468;2023-08-07T01:04:21;14.93;;;4.70;;
68074;SDS011;54864;52.002;5.468;2023-08-07T01:05:24;13.35;;;4.18;;
68074;SDS011;54864;52.002;5.468;2023-08-07T01:06:29;18.13;;;4.73;;
68074;SDS011;54864;52.002;5.468;2023-08-07T01:07:30;14.20;;;4.07;;
68074;SDS011;54864;52.002;5.468;2023-08-07T01:08:32;12.43;;;3.70;;
68074;SDS011;54864;52.002;5.468;2023-08-07T01:09:33;15.13;;;4.55;;
68074;SDS011;54864;52.002;5.468;2023-08-07T01:10:37;7.53;;;3.50;;
68074;SDS011;54864;52.002;5.468;2023-08-07T01:11:49;12.80;;;4.00;;
68074;SDS011;54864;52.002;5.468;2023-08-07T01:13:18;13.48;;;3.90;;
68074;SDS011;54864;52.002;5.468;2023-08-07T01:14:24;14.77;;;4.30;;
68074;SDS011;54864;52.002;5.468;2023-08-07T01:15:37;15.30;;;4.68;;
68074;SDS011;54864;52.002;5.468;2023-08-07T01:16:42;15.15;;;3.97;;
68074;SDS011;54864;52.002;5.468;2023-08-07T01:17:51;11.98;;;4.28;;
68074;SDS011;54864;52.002;5.468;2023-08-07T01:18:54;13.52;;;3.70;;
68074;SDS011;54864;52.002;5.468;2023-08-07T01:19:58;14.60;;;3.97;;
68074;SDS011;54864;52.002;5.468;2023-08-07T01:21:16;12.88;;;4.20;;
68074;SDS011;54864;52.002;5.468;2023-08-07T01:22:23;15.48;;;4.47;;
68074;SDS011;54864;52.002;5.468;2023-08-07T01:23:24;13.73;;;3.65;;
68074;SDS011;54864;52.002;5.468;2023-08-07T01:24:29;16.92;;;4.50;;
68074;SDS011;54864;52.002;5.468;2023-08-07T01:25:29;16.53;;;3.80;;
68074;SDS011;54864;52.002;5.468;2023-08-07T01:26:31;16.33;;;4.15;;
68074;SDS011;54864;52.002;5.468;2023-08-07T01:27:42;17.05;;;3.97;;
68074;SDS011;54864;52.002;5.468;2023-08-07T01:28:49;18.70;;;4.47;;
68074;SDS011;54864;52.002;5.468;2023-08-07T01:29:59;16.38;;;4.32;;
68074;SDS011;54864;52.002;5.468;2023-08-07T01:31:08;14.90;;;4.55;;
68074;SDS011;54864;52.002;5.468;2023-08-07T01:32:14;12.65;;;3.30;;
68074;SDS011;54864;52.002;5.468;2023-08-07T01:33:22;15.02;;;3.63;;
68074;SDS011;54864;52.002;5.468;2023-08-07T01:34:30;18.25;;;4.13;;
68074;SDS011;54864;52.002;5.468;2023-08-07T01:35:33;11.05;;;3.55;;
68074;SDS011;54864;52.002;5.468;2023-08-07T01:36:36;14.00;;;3.85;;
68074;SDS011;54864;52.002;5.468;2023-08-07T01:37:44;16.42;;;4.03;;
68074;SDS011;54864;52.002;5.468;2023-08-07T01:38:47;15.98;;;4.22;;
68074;SDS011;54864;52.002;5.468;2023-08-07T01:39:51;12.63;;;3.60;;
68074;SDS011;54864;52.002;5.468;2023-08-07T01:40:56;15.13;;;3.72;;
68074;SDS011;54864;52.002;5.468;2023-08-07T01:41:59;11.55;;;3.20;;
68074;SDS011;54864;52.002;5.468;2023-08-07T01:43:06;13.90;;;3.30;;
68074;SDS011;54864;52.002;5.468;2023-08-07T01:44:11;10.63;;;3.63;;
68074;SDS011;54864;52.002;5.468;2023-08-07T01:45:13;11.63;;;3.78;;
68074;SDS011;54864;52.002;5.468;2023-08-07T01:46:20;13.00;;;3.70;;
68074;SDS011;54864;52.002;5.468;2023-08-07T01:47:22;16.60;;;4.07;;
68074;SDS011;54864;52.002;5.468;2023-08-07T01:48:32;12.55;;;3.45;;
68074;SDS011;54864;52.002;5.468;2023-08-07T01:49:38;8.60;;;3.13;;
68074;SDS011;54864;52.002;5.468;2023-08-07T01:50:43;13.70;;;3.17;;
68074;SDS011;54864;52.002;5.468;2023-08-07T01:51:45;10.35;;;2.90;;
68074;SDS011;54864;52.002;5.468;2023-08-07T01:52:47;11.87;;;3.60;;
68074;SDS011;54864;52.002;5.468;2023-08-07T01:53:49;10.18;;;3.60;;
68074;SDS011;54864;52.002;5.468;2023-08-07T01:54:52;12.90;;;3.42;;
68074;SDS011;54864;52.002;5.468;2023-08-07T01:55:54;10.50;;;3.47;;
68074;SDS011;54864;52.002;5.468;2023-08-07T01:56:54;11.50;;;3.47;;
68074;SDS011;54864;52.002;5.468;2023-08-07T01:57:56;11.45;;;3.25;;
68074;SDS011;54864;52.002;5.468;2023-08-07T01:58:57;11.80;;;3.22;;
68074;SDS011;54864;52.002;5.468;2023-08-07T01:59:58;11.90;;;3.58;;
68074;SDS011;54864;52.002;5.468;2023-08-07T02:00:59;13.02;;;3.38;;
68074;SDS011;54864;52.002;5.468;2023-08-07T02:02:01;16.17;;;3.78;;
68074;SDS011;54864;52.002;5.468;2023-08-07T02:03:02;9.38;;;3.33;;
68074;SDS011;54864;52.002;5.468;2023-08-07T02:04:04;12.65;;;4.18;;
68074;SDS011;54864;52.002;5.468;2023-08-07T02:05:05;15.10;;;3.47;;
68074;SDS011;54864;52.002;5.468;2023-08-07T02:06:08;13.30;;;3.38;;
68074;SDS011;54864;52.002;5.468;2023-08-07T02:07:08;10.77;;;3.30;;
68074;SDS011;54864;52.002;5.468;2023-08-07T02:08:11;13.32;;;4.22;;
68074;SDS011;54864;52.002;5.468;2023-08-07T02:09:12;11.32;;;4.22;;
68074;SDS011;54864;52.002;5.468;2023-08-07T02:10:14;9.85;;;3.40;;
68074;SDS011;54864;52.002;5.468;2023-08-07T02:11:14;8.18;;;3.10;;
68074;SDS011;54864;52.002;5.468;2023-08-07T02:12:16;14.83;;;3.70;;
68074;SDS011;54864;52.002;5.468;2023-08-07T02:13:17;16.75;;;4.47;;
68074;SDS011;54864;52.002;5.468;2023-08-07T02:14:22;14.65;;;3.80;;
68074;SDS011;54864;52.002;5.468;2023-08-07T02:15:22;14.63;;;3.50;;
68074;SDS011;54864;52.002;5.468;2023-08-07T02:16:24;16.50;;;3.60;;
68074;SDS011;54864;52.002;5.468;2023-08-07T02:17:25;20.77;;;3.88;;
68074;SDS011;54864;52.002;5.468;2023-08-07T02:18:30;13.57;;;3.38;;
68074;SDS011;54864;52.002;5.468;2023-08-07T02:19:31;13.18;;;3.00;;
68074;SDS011;54864;52.002;5.468;2023-08-07T02:20:38;9.43;;;3.25;;
68074;SDS011;54864;52.002;5.468;2023-08-07T02:21:40;15.48;;;3.35;;
68074;SDS011;54864;52.002;5.468;2023-08-07T02:22:40;13.40;;;3.17;;
68074;SDS011;54864;52.002;5.468;2023-08-07T02:23:43;11.95;;;4.10;;
68074;SDS011;54864;52.002;5.468;2023-08-07T02:24:44;13.65;;;3.60;;
68074;SDS011;54864;52.002;5.468;2023-08-07T02:25:45;9.40;;;3.50;;
68074;SDS011;54864;52.002;5.468;2023-08-07T02:26:47;12.32;;;3.30;;
68074;SDS011;54864;52.002;5.468;2023-08-07T02:27:47;11.40;;;3.40;;
68074;SDS011;54864;52.002;5.468;2023-08-07T02:28:49;8.57;;;3.08;;
68074;SDS011;54864;52.002;5.468;2023-08-07T02:29:50;12.02;;;3.63;;
68074;SDS011;54864;52.002;5.468;2023-08-07T02:30:52;10.90;;;3.67;;
68074;SDS011;54864;52.002;5.468;2023-08-07T02:31:54;9.77;;;3.17;;
68074;SDS011;54864;52.002;5.468;2023-08-07T02:32:56;14.17;;;4.00;;
68074;SDS011;54864;52.002;5.468;2023-08-07T02:33:57;13.20;;;4.00;;
68074;SDS011;54864;52.002;5.468;2023-08-07T02:34:58;11.10;;;3.33;;
68074;SDS011;54864;52.002;5.468;2023-08-07T02:35:59;7.53;;;3.00;;
68074;SDS011;54864;52.002;5.468;2023-08-07T02:37:01;14.63;;;3.70;;
68074;SDS011;54864;52.002;5.468;2023-08-07T02:38:01;7.57;;;2.90;;
68074;SDS011;54864;52.002;5.468;2023-08-07T02:39:05;10.45;;;3.58;;
68074;SDS011;54864;52.002;5.468;2023-08-07T02:40:06;12.15;;;3.38;;
68074;SDS011;54864;52.002;5.468;2023-08-07T02:41:07;10.07;;;3.03;;
68074;SDS011;54864;52.002;5.468;2023-08-07T02:42:11;14.68;;;3.28;;
68074;SDS011;54864;52.002;5.468;2023-08-07T02:43:12;7.38;;;3.13;;
68074;SDS011;54864;52.002;5.468;2023-08-07T02:44:14;13.50;;;3.55;;
68074;SDS011;54864;52.002;5.468;2023-08-07T02:45:14;9.57;;;3.80;;
68074;SDS011;54864;52.002;5.468;2023-08-07T02:46:16;13.82;;;3.55;;
68074;SDS011;54864;52.002;5.468;2023-08-07T02:47:20;13.30;;;3.25;;
68074;SDS011;54864;52.002;5.468;2023-08-07T02:48:21;11.73;;;3.42;;
68074;SDS011;54864;52.002;5.468;2023-08-07T02:49:28;11.13;;;3.25;;
68074;SDS011;54864;52.002;5.468;2023-08-07T02:50:30;7.77;;;2.90;;
68074;SDS011;54864;52.002;5.468;2023-08-07T02:51:32;11.07;;;3.25;;
68074;SDS011;54864;52.002;5.468;2023-08-07T02:52:34;13.48;;;3.65;;
68074;SDS011;54864;52.002;5.468;2023-08-07T02:53:35;14.05;;;3.80;;
68074;SDS011;54864;52.002;5.468;2023-08-07T02:54:38;15.20;;;3.90;;
68074;SDS011;54864;52.002;5.468;2023-08-07T02:55:39;13.90;;;3.75;;
68074;SDS011;54864;52.002;5.468;2023-08-07T02:57:04;12.82;;;3.50;;
68074;SDS011;54864;52.002;5.468;2023-08-07T02:58:06;9.82;;;2.90;;
68074;SDS011;54864;52.002;5.468;2023-08-07T02:59:11;12.30;;;3.75;;
68074;SDS011;54864;52.002;5.468;2023-08-07T03:00:11;13.25;;;3.58;;
68074;SDS011;54864;52.002;5.468;2023-08-07T03:01:14;14.05;;;4.05;;
68074;SDS011;54864;52.002;5.468;2023-08-07T03:02:17;12.18;;;3.78;;
68074;SDS011;54864;52.002;5.468;2023-08-07T03:03:19;14.45;;;3.70;;
68074;SDS011;54864;52.002;5.468;2023-08-07T03:04:23;14.18;;;3.78;;
68074;SDS011;54864;52.002;5.468;2023-08-07T03:05:27;14.77;;;4.20;;
68074;SDS011;54864;52.002;5.468;2023-08-07T03:06:28;14.50;;;4.10;;
68074;SDS011;54864;52.002;5.468;2023-08-07T03:07:50;16.77;;;3.67;;
68074;SDS011;54864;52.002;5.468;2023-08-07T03:08:50;17.27;;;4.32;;
68074;SDS011;54864;52.002;5.468;2023-08-07T03:09:53;12.30;;;3.58;;
68074;SDS011;54864;52.002;5.468;2023-08-07T03:11:00;12.27;;;3.30;;
68074;SDS011;54864;52.002;5.468;2023-08-07T03:12:10;11.55;;;3.60;;
68074;SDS011;54864;52.002;5.468;2023-08-07T03:13:26;7.85;;;2.70;;
68074;SDS011;54864;52.002;5.468;2023-08-07T03:14:31;13.05;;;4.32;;
68074;SDS011;54864;52.002;5.468;2023-08-07T03:15:33;17.77;;;4.13;;
68074;SDS011;54864;52.002;5.468;2023-08-07T03:16:34;21.05;;;4.60;;
68074;SDS011;54864;52.002;5.468;2023-08-07T03:17:35;15.83;;;4.20;;
68074;SDS011;54864;52.002;5.468;2023-08-07T03:18:38;15.15;;;4.28;;
68074;SDS011;54864;52.002;5.468;2023-08-07T03:19:39;15.15;;;3.90;;
68074;SDS011;54864;52.002;5.468;2023-08-07T03:20:49;14.88;;;4.00;;
68074;SDS011;54864;52.002;5.468;2023-08-07T03:21:49;11.20;;;3.38;;
68074;SDS011;54864;52.002;5.468;2023-08-07T03:22:54;18.08;;;4.22;;
68074;SDS011;54864;52.002;5.468;2023-08-07T03:23:58;14.98;;;4.65;;
68074;SDS011;54864;52.002;5.468;2023-08-07T03:25:01;13.05;;;3.60;;
68074;SDS011;54864;52.002;5.468;2023-08-07T03:26:02;15.57;;;3.60;;
68074;SDS011;54864;52.002;5.468;2023-08-07T03:27:10;11.02;;;4.40;;
68074;SDS011;54864;52.002;5.468;2023-08-07T03:28:11;14.83;;;3.80;;
68074;SDS011;54864;52.002;5.468;2023-08-07T03:29:13;8.75;;;3.35;;
68074;SDS011;54864;52.002;5.468;2023-08-07T03:30:13;10.45;;;3.10;;
68074;SDS011;54864;52.002;5.468;2023-08-07T03:31:15;14.20;;;3.47;;
68074;SDS011;54864;52.002;5.468;2023-08-07T03:32:16;10.32;;;3.10;;
68074;SDS011;54864;52.002;5.468;2023-08-07T03:33:20;12.32;;;3.70;;
68074;SDS011;54864;52.002;5.468;2023-08-07T03:34:20;10.30;;;3.50;;
68074;SDS011;54864;52.002;5.468;2023-08-07T03:35:22;13.52;;;3.50;;
68074;SDS011;54864;52.002;5.468;2023-08-07T03:36:26;8.75;;;3.53;;
68074;SDS011;54864;52.002;5.468;2023-08-07T03:37:28;12.98;;;3.80;;
68074;SDS011;54864;52.002;5.468;2023-08-07T03:38:28;9.80;;;3.10;;
68074;SDS011;54864;52.002;5.468;2023-08-07T03:39:31;11.38;;;3.60;;
68074;SDS011;54864;52.002;5.468;2023-08-07T03:40:34;10.75;;;3.60;;
68074;SDS011;54864;52.002;5.468;2023-08-07T03:41:38;12.38;;;4.20;;
68074;SDS011;54864;52.002;5.468;2023-08-07T03:42:40;11.98;;;3.50;;
68074;SDS011;54864;52.002;5.468;2023-08-07T03:43:40;13.50;;;4.43;;
68074;SDS011;54864;52.002;5.468;2023-08-07T03:44:42;12.40;;;3.95;;
68074;SDS011;54864;52.002;5.468;2023-08-07T03:45:43;14.57;;;3.45;;
68074;SDS011;54864;52.002;5.468;2023-08-07T03:46:44;10.70;;;3.40;;
68074;SDS011;54864;52.002;5.468;2023-08-07T03:47:45;11.68;;;3.65;;
68074;SDS011;54864;52.002;5.468;2023-08-07T03:49:06;9.52;;;3.90;;
68074;SDS011;54864;52.002;5.468;2023-08-07T03:50:08;13.50;;;3.42;;
68074;SDS011;54864;52.002;5.468;2023-08-07T03:51:09;12.20;;;3.38;;
68074;SDS011;54864;52.002;5.468;2023-08-07T03:52:11;10.15;;;3.38;;
68074;SDS011;54864;52.002;5.468;2023-08-07T03:53:11;12.10;;;3.50;;
68074;SDS011;54864;52.002;5.468;2023-08-07T03:54:13;16.67;;;4.95;;
68074;SDS011;54864;52.002;5.468;2023-08-07T03:55:14;15.82;;;4.18;;
68074;SDS011;54864;52.002;5.468;2023-08-07T03:56:17;11.05;;;3.42;;
68074;SDS011;54864;52.002;5.468;2023-08-07T03:57:18;12.30;;;3.50;;
68074;SDS011;54864;52.002;5.468;2023-08-07T03:58:22;9.23;;;3.00;;
68074;SDS011;54864;52.002;5.468;2023-08-07T03:59:23;12.27;;;3.13;;
68074;SDS011;54864;52.002;5.468;2023-08-07T04:00:25;11.20;;;2.90;;
68074;SDS011;54864;52.002;5.468;2023-08-07T04:01:28;10.27;;;3.42;;
68074;SDS011;54864;52.002;5.468;2023-08-07T04:02:32;9.63;;;2.78;;
68074;SDS011;54864;52.002;5.468;2023-08-07T04:03:36;7.50;;;2.63;;
68074;SDS011;54864;52.002;5.468;2023-08-07T04:04:44;10.95;;;2.78;;
68074;SDS011;54864;52.002;5.468;2023-08-07T04:05:51;8.68;;;3.00;;
68074;SDS011;54864;52.002;5.468;2023-08-07T04:06:56;7.82;;;2.78;;
68074;SDS011;54864;52.002;5.468;2023-08-07T04:07:57;9.43;;;3.03;;
68074;SDS011;54864;52.002;5.468;2023-08-07T04:08:58;8.63;;;2.90;;
68074;SDS011;54864;52.002;5.468;2023-08-07T04:09:59;7.30;;;3.03;;
68074;SDS011;54864;52.002;5.468;2023-08-07T04:11:01;13.48;;;3.10;;
68074;SDS011;54864;52.002;5.468;2023-08-07T04:12:04;9.80;;;3.03;;
68074;SDS011;54864;52.002;5.468;2023-08-07T04:13:07;7.75;;;2.97;;
68074;SDS011;54864;52.002;5.468;2023-08-07T04:14:08;7.80;;;2.88;;
68074;SDS011;54864;52.002;5.468;2023-08-07T04:15:11;9.57;;;3.00;;
68074;SDS011;54864;52.002;5.468;2023-08-07T04:16:11;10.05;;;3.17;;
68074;SDS011;54864;52.002;5.468;2023-08-07T04:17:13;8.88;;;3.03;;
68074;SDS011;54864;52.002;5.468;2023-08-07T04:18:14;7.47;;;2.80;;
68074;SDS011;54864;52.002;5.468;2023-08-07T04:19:16;7.55;;;3.17;;
68074;SDS011;54864;52.002;5.468;2023-08-07T04:20:17;8.40;;;3.03;;
68074;SDS011;54864;52.002;5.468;2023-08-07T04:21:20;10.50;;;3.25;;
68074;SDS011;54864;52.002;5.468;2023-08-07T04:22:24;7.25;;;2.78;;
68074;SDS011;54864;52.002;5.468;2023-08-07T04:23:25;8.80;;;3.00;;
68074;SDS011;54864;52.002;5.468;2023-08-07T04:24:26;8.10;;;3.00;;
68074;SDS011;54864;52.002;5.468;2023-08-07T04:25:28;8.13;;;2.97;;
68074;SDS011;54864;52.002;5.468;2023-08-07T04:26:32;7.80;;;2.80;;
68074;SDS011;54864;52.002;5.468;2023-08-07T04:27:35;8.68;;;3.03;;
68074;SDS011;54864;52.002;5.468;2023-08-07T04:28:36;12.00;;;3.20;;
68074;SDS011;54864;52.002;5.468;2023-08-07T04:29:38;11.18;;;3.63;;
68074;SDS011;54864;52.002;5.468;2023-08-07T04:30:42;10.35;;;3.05;;
68074;SDS011;54864;52.002;5.468;2023-08-07T04:31:47;11.98;;;3.33;;
68074;SDS011;54864;52.002;5.468;2023-08-07T04:32:48;12.93;;;3.17;;
68074;SDS011;54864;52.002;5.468;2023-08-07T04:33:50;11.05;;;3.42;;
68074;SDS011;54864;52.002;5.468;2023-08-07T04:34:53;11.65;;;3.90;;
68074;SDS011;54864;52.002;5.468;2023-08-07T04:35:55;12.52;;;3.42;;
68074;SDS011;54864;52.002;5.468;2023-08-07T04:36:59;11.82;;;3.70;;
68074;SDS011;54864;52.002;5.468;2023-08-07T04:38:01;11.25;;;4.07;;
68074;SDS011;54864;52.002;5.468;2023-08-07T04:39:02;12.98;;;3.53;;
68074;SDS011;54864;52.002;5.468;2023-08-07T04:40:04;9.52;;;3.45;;
68074;SDS011;54864;52.002;5.468;2023-08-07T04:41:08;11.27;;;3.95;;
68074;SDS011;54864;52.002;5.468;2023-08-07T04:42:10;11.68;;;4.35;;
68074;SDS011;54864;52.002;5.468;2023-08-07T04:43:12;11.02;;;3.30;;
68074;SDS011;54864;52.002;5.468;2023-08-07T04:44:14;9.35;;;3.47;;
68074;SDS011;54864;52.002;5.468;2023-08-07T04:45:15;12.10;;;3.63;;
68074;SDS011;54864;52.002;5.468;2023-08-07T04:46:17;9.38;;;3.22;;
68074;SDS011;54864;52.002;5.468;2023-08-07T04:47:18;16.88;;;3.63;;
68074;SDS011;54864;52.002;5.468;2023-08-07T04:48:22;13.05;;;3.95;;
68074;SDS011;54864;52.002;5.468;2023-08-07T04:49:31;16.30;;;4.13;;
68074;SDS011;54864;52.002;5.468;2023-08-07T04:50:36;14.03;;;3.97;;
68074;SDS011;54864;52.002;5.468;2023-08-07T04:51:37;11.80;;;3.77;;
68074;SDS011;54864;52.002;5.468;2023-08-07T04:52:38;12.40;;;3.25;;
68074;SDS011;54864;52.002;5.468;2023-08-07T04:53:39;10.50;;;4.00;;
68074;SDS011;54864;52.002;5.468;2023-08-07T04:54:41;15.93;;;4.38;;
68074;SDS011;54864;52.002;5.468;2023-08-07T04:55:42;16.20;;;3.90;;
68074;SDS011;54864;52.002;5.468;2023-08-07T04:56:44;19.08;;;3.47;;
68074;SDS011;54864;52.002;5.468;2023-08-07T04:57:45;13.83;;;4.03;;
68074;SDS011;54864;52.002;5.468;2023-08-07T04:58:48;11.93;;;3.88;;
68074;SDS011;54864;52.002;5.468;2023-08-07T04:59:50;12.15;;;3.88;;
68074;SDS011;54864;52.002;5.468;2023-08-07T05:00:54;13.68;;;3.30;;
68074;SDS011;54864;52.002;5.468;2023-08-07T05:01:58;11.82;;;3.47;;
68074;SDS011;54864;52.002;5.468;2023-08-07T05:03:00;11.40;;;3.17;;
68074;SDS011;54864;52.002;5.468;2023-08-07T05:04:01;11.87;;;3.43;;
68074;SDS011;54864;52.002;5.468;2023-08-07T05:05:05;16.00;;;3.70;;
68074;SDS011;54864;52.002;5.468;2023-08-07T05:06:06;12.02;;;3.30;;
68074;SDS011;54864;52.002;5.468;2023-08-07T05:07:08;10.55;;;3.30;;
68074;SDS011;54864;52.002;5.468;2023-08-07T05:08:08;14.27;;;3.50;;
68074;SDS011;54864;52.002;5.468;2023-08-07T05:09:13;10.43;;;3.50;;
68074;SDS011;54864;52.002;5.468;2023-08-07T05:10:17;12.48;;;3.78;;
68074;SDS011;54864;52.002;5.468;2023-08-07T05:11:18;11.73;;;3.28;;
68074;SDS011;54864;52.002;5.468;2023-08-07T05:12:20;11.75;;;3.42;;
68074;SDS011;54864;52.002;5.468;2023-08-07T05:13:22;11.88;;;3.15;;
68074;SDS011;54864;52.002;5.468;2023-08-07T05:14:30;11.38;;;3.28;;
68074;SDS011;54864;52.002;5.468;2023-08-07T05:15:32;12.95;;;3.03;;
68074;SDS011;54864;52.002;5.468;2023-08-07T05:16:33;8.38;;;3.38;;
68074;SDS011;54864;52.002;5.468;2023-08-07T05:17:34;10.82;;;3.38;;
68074;SDS011;54864;52.002;5.468;2023-08-07T05:18:38;12.10;;;3.50;;
68074;SDS011;54864;52.002;5.468;2023-08-07T05:19:40;13.75;;;3.78;;
68074;SDS011;54864;52.002;5.468;2023-08-07T05:20:43;10.65;;;3.75;;
68074;SDS011;54864;52.002;5.468;2023-08-07T05:21:45;14.50;;;3.80;;
68074;SDS011;54864;52.002;5.468;2023-08-07T05:22:50;12.98;;;4.18;;
68074;SDS011;54864;52.002;5.468;2023-08-07T05:23:51;13.00;;;4.13;;
68074;SDS011;54864;52.002;5.468;2023-08-07T05:24:55;11.68;;;3.67;;
68074;SDS011;54864;52.002;5.468;2023-08-07T05:25:59;11.48;;;3.60;;
68074;SDS011;54864;52.002;5.468;2023-08-07T05:27:00;14.02;;;3.72;;
68074;SDS011;54864;52.002;5.468;2023-08-07T05:28:02;16.88;;;4.20;;
68074;SDS011;54864;52.002;5.468;2023-08-07T05:29:03;15.80;;;4.25;;
68074;SDS011;54864;52.002;5.468;2023-08-07T05:30:08;12.10;;;3.42;;
68074;SDS011;54864;52.002;5.468;2023-08-07T05:31:10;17.20;;;4.10;;
68074;SDS011;54864;52.002;5.468;2023-08-07T05:32:12;13.30;;;3.42;;
68074;SDS011;54864;52.002;5.468;2023-08-07T05:33:20;9.65;;;3.30;;
68074;SDS011;54864;52.002;5.468;2023-08-07T05:34:22;11.20;;;3.60;;
68074;SDS011;54864;52.002;5.468;2023-08-07T05:35:26;15.15;;;4.10;;
68074;SDS011;54864;52.002;5.468;2023-08-07T05:36:30;14.07;;;3.80;;
68074;SDS011;54864;52.002;5.468;2023-08-07T05:37:36;13.23;;;3.83;;
68074;SDS011;54864;52.002;5.468;2023-08-07T05:38:40;16.25;;;3.90;;
68074;SDS011;54864;52.002;5.468;2023-08-07T05:39:41;12.40;;;4.10;;
68074;SDS011;54864;52.002;5.468;2023-08-07T05:40:43;14.68;;;4.38;;
68074;SDS011;54864;52.002;5.468;2023-08-07T05:41:44;16.02;;;5.38;;
68074;SDS011;54864;52.002;5.468;2023-08-07T05:42:46;14.35;;;4.45;;
68074;SDS011;54864;52.002;5.468;2023-08-07T05:43:47;12.17;;;4.30;;
68074;SDS011;54864;52.002;5.468;2023-08-07T05:44:51;14.00;;;5.15;;
68074;SDS011;54864;52.002;5.468;2023-08-07T05:45:53;15.18;;;4.60;;
68074;SDS011;54864;52.002;5.468;2023-08-07T05:46:55;9.98;;;3.65;;
68074;SDS011;54864;52.002;5.468;2023-08-07T05:47:59;7.35;;;3.40;;
68074;SDS011;54864;52.002;5.468;2023-08-07T05:49:00;14.52;;;3.58;;
68074;SDS011;54864;52.002;5.468;2023-08-07T05:50:07;7.60;;;2.95;;
68074;SDS011;54864;52.002;5.468;2023-08-07T05:51:09;9.70;;;3.38;;
68074;SDS011;54864;52.002;5.468;2023-08-07T05:52:10;8.88;;;2.83;;
68074;SDS011;54864;52.002;5.468;2023-08-07T05:53:14;7.78;;;3.35;;
68074;SDS011;54864;52.002;5.468;2023-08-07T05:54:15;12.93;;;3.20;;
68074;SDS011;54864;52.002;5.468;2023-08-07T05:55:20;9.52;;;2.92;;
68074;SDS011;54864;52.002;5.468;2023-08-07T05:56:24;8.35;;;3.08;;
68074;SDS011;54864;52.002;5.468;2023-08-07T05:57:44;9.48;;;3.47;;
68074;SDS011;54864;52.002;5.468;2023-08-07T05:58:45;10.37;;;3.43;;
68074;SDS011;54864;52.002;5.468;2023-08-07T05:59:46;10.52;;;3.50;;
68074;SDS011;54864;52.002;5.468;2023-08-07T06:00:47;8.23;;;3.35;;
68074;SDS011;54864;52.002;5.468;2023-08-07T06:01:50;9.75;;;3.28;;
68074;SDS011;54864;52.002;5.468;2023-08-07T06:02:51;8.75;;;3.10;;
68074;SDS011;54864;52.002;5.468;2023-08-07T06:03:52;9.70;;;3.00;;
68074;SDS011;54864;52.002;5.468;2023-08-07T06:04:54;11.07;;;3.23;;
68074;SDS011;54864;52.002;5.468;2023-08-07T06:05:55;9.40;;;3.60;;
68074;SDS011;54864;52.002;5.468;2023-08-07T06:06:57;15.93;;;3.22;;
68074;SDS011;54864;52.002;5.468;2023-08-07T06:08:00;9.50;;;3.13;;
68074;SDS011;54864;52.002;5.468;2023-08-07T06:09:08;9.95;;;3.35;;
68074;SDS011;54864;52.002;5.468;2023-08-07T06:10:13;10.07;;;3.25;;
68074;SDS011;54864;52.002;5.468;2023-08-07T06:11:16;9.27;;;3.25;;
68074;SDS011;54864;52.002;5.468;2023-08-07T06:12:17;10.43;;;3.38;;
68074;SDS011;54864;52.002;5.468;2023-08-07T06:13:19;11.65;;;3.53;;
68074;SDS011;54864;52.002;5.468;2023-08-07T06:14:19;9.70;;;3.40;;
68074;SDS011;54864;52.002;5.468;2023-08-07T06:15:21;11.10;;;3.08;;
68074;SDS011;54864;52.002;5.468;2023-08-07T06:16:22;9.20;;;3.22;;